createdAt,value
2018-09-18T00:00:04.227Z,119
2018-09-18T00:05:04.225Z,119
2018-09-18T00:10:04.220Z,119
2018-09-18T00:15:04.236Z,119
2018-09-18T00:20:04.233Z,119
2018-09-18T00:25:04.230Z,119
2018-09-18T00:30:04.289Z,119
2018-09-18T00:35:04.237Z,119
2018-09-18T00:40:04.244Z,119
2018-09-18T00:45:04.250Z,119
2018-09-18T00:50:04.247Z,119
2018-09-18T00:55:04.248Z,119
2018-09-18T01:00:04.257Z,119
2018-09-18T01:05:04.245Z,119
2018-09-18T01:10:04.252Z,119
2018-09-18T01:15:04.278Z,119
2018-09-18T01:20:04.257Z,119
2018-09-18T01:25:04.264Z,119
2018-09-18T01:30:04.272Z,119
2018-09-18T01:35:04.266Z,119
2018-09-18T01:40:04.293Z,119
2018-09-18T01:45:04.280Z,119
2018-09-18T01:50:04.292Z,119
2018-09-18T01:55:04.278Z,119
2018-09-18T02:00:04.300Z,119
2018-09-18T02:05:04.284Z,119
2018-09-18T02:10:04.306Z,119
2018-09-18T02:15:04.292Z,119
2018-09-18T02:20:04.307Z,119
2018-09-18T02:25:04.295Z,119
2018-09-18T02:30:04.311Z,119
2018-09-18T02:35:04.301Z,119
2018-09-18T02:40:04.315Z,119
2018-09-18T02:45:04.321Z,119
2018-09-18T02:50:04.323Z,119
2018-09-18T02:55:04.312Z,119
2018-09-18T03:00:04.338Z,119
2018-09-18T03:05:04.313Z,119
2018-09-18T03:10:04.316Z,119
2018-09-18T03:15:04.327Z,119
2018-09-18T03:20:04.324Z,119
2018-09-18T03:25:04.327Z,119
2018-09-18T03:30:04.350Z,119
2018-09-18T03:35:04.332Z,119
2018-09-18T03:40:04.341Z,119
2018-09-18T03:45:04.346Z,119
2018-09-18T03:50:04.338Z,119
2018-09-18T03:55:04.341Z,119
2018-09-18T04:00:04.351Z,119
2018-09-18T04:05:04.351Z,119
2018-09-18T04:10:04.353Z,119
2018-09-18T04:15:04.363Z,119
2018-09-18T04:20:04.355Z,119
2018-09-18T04:25:04.356Z,119
2018-09-18T04:30:04.389Z,119
2018-09-18T04:35:04.368Z,119
2018-09-18T04:40:04.368Z,119
2018-09-18T04:45:04.390Z,119
2018-09-18T04:50:04.372Z,119
2018-09-18T04:55:04.585Z,119
2018-09-18T05:00:04.391Z,119
2018-09-18T05:05:04.390Z,119
2018-09-18T05:10:04.385Z,119
2018-09-18T05:15:04.405Z,119
2018-09-18T05:20:04.399Z,119
2018-09-18T05:25:04.394Z,119
2018-09-18T05:30:04.406Z,119
2018-09-18T05:35:04.397Z,119
2018-09-18T05:40:04.402Z,119
2018-09-18T05:45:04.430Z,119
2018-09-18T05:50:04.404Z,119
2018-09-18T05:55:04.409Z,119
2018-09-18T06:00:04.424Z,119
2018-09-18T06:05:04.409Z,119
2018-09-18T06:10:03.419Z,119
2018-09-18T06:15:03.428Z,119
2018-09-18T06:20:03.439Z,119
2018-09-18T06:25:03.433Z,119
2018-09-18T06:30:03.427Z,119
2018-09-18T06:35:03.440Z,119
2018-09-18T06:40:03.455Z,119
2018-09-18T06:45:03.432Z,119
2018-09-18T06:50:03.435Z,111.33
2018-09-18T06:55:03.457Z,100.15
2018-09-18T07:00:03.444Z,87.95
2018-09-18T07:05:03.445Z,74.53
2018-09-18T07:10:03.458Z,63.41
2018-09-18T07:15:03.452Z,62.28
2018-09-18T07:20:03.449Z,52.96
2018-09-18T07:25:03.465Z,45.69
2018-09-18T07:30:03.461Z,47.13
2018-09-18T07:35:03.462Z,40.26
2018-09-18T07:40:03.479Z,38.77
2018-09-18T07:45:03.466Z,30.11
2018-09-18T07:50:03.474Z,31.33
2018-09-18T07:55:03.486Z,30.43
2018-09-18T08:00:03.474Z,24.36
2018-09-18T08:05:03.483Z,20.25
2018-09-18T08:10:03.489Z,16.97
2018-09-18T08:15:03.485Z,12.33
2018-09-18T08:20:03.487Z,8.57
2018-09-18T08:25:03.623Z,8.39
2018-09-18T08:30:03.512Z,4.08
2018-09-18T08:35:03.503Z,1.09
2018-09-18T08:40:03.862Z,-4.44
2018-09-18T08:45:03.506Z,-6
2018-09-18T08:50:03.522Z,-6
2018-09-18T08:55:03.522Z,-6
2018-09-18T09:00:03.515Z,-6
2018-09-18T09:05:03.535Z,-6
2018-09-18T09:10:03.729Z,-6
2018-09-18T09:15:03.646Z,-6
2018-09-18T09:20:03.555Z,-6
2018-09-18T09:25:03.574Z,-6
2018-09-18T09:30:03.763Z,-6
2018-09-18T09:35:03.543Z,-6
2018-09-18T09:40:03.611Z,-6
2018-09-18T09:45:03.773Z,-6
2018-09-18T09:50:03.542Z,-6
2018-09-18T09:55:03.562Z,-6
2018-09-18T10:00:03.542Z,-6
2018-09-18T10:05:03.543Z,-6
2018-09-18T10:10:03.556Z,-6
2018-09-18T10:15:03.551Z,-6
2018-09-18T10:20:03.550Z,-6
2018-09-18T10:25:03.734Z,-6
2018-09-18T10:30:03.596Z,-6
2018-09-18T10:35:03.628Z,-6
2018-09-18T10:40:03.587Z,-6
2018-09-18T10:45:03.596Z,-6
2018-09-18T10:50:03.572Z,-6
2018-09-18T10:55:03.580Z,-6
2018-09-18T11:00:03.627Z,-6
2018-09-18T11:05:03.583Z,-6
2018-09-18T11:10:03.931Z,-6
2018-09-18T11:15:03.812Z,-6
2018-09-18T11:20:03.759Z,-6
2018-09-18T11:25:03.590Z,-6
2018-09-18T11:30:03.608Z,-6
2018-09-18T11:35:03.598Z,-6
2018-09-18T11:40:03.595Z,-6
2018-09-18T11:45:03.606Z,-6
2018-09-18T11:50:03.601Z,-6
2018-09-18T11:55:03.614Z,-6
2018-09-18T12:00:03.609Z,-6
2018-09-18T12:05:03.832Z,-6
2018-09-18T12:10:03.618Z,-6
2018-09-18T12:15:03.623Z,-6
2018-09-18T12:20:03.626Z,-6
2018-09-18T12:25:03.621Z,-6
2018-09-18T12:30:03.643Z,-6
2018-09-18T12:35:03.631Z,-6
2018-09-18T12:40:03.635Z,-6
2018-09-18T12:45:03.645Z,-6
2018-09-18T12:50:04.382Z,-6
2018-09-18T12:55:03.647Z,-6
2018-09-18T13:00:03.762Z,-6
2018-09-18T13:05:03.648Z,-6
2018-09-18T13:10:03.871Z,-6
2018-09-18T13:15:03.662Z,-6
2018-09-18T13:20:03.853Z,-6
2018-09-18T13:25:03.647Z,-6
2018-09-18T13:30:03.668Z,-6
2018-09-18T13:35:03.662Z,-6
2018-09-18T13:40:03.658Z,-6
2018-09-18T13:45:03.688Z,-6
2018-09-18T13:50:03.666Z,-6
2018-09-18T13:55:03.670Z,-6
2018-09-18T14:00:03.688Z,-6
2018-09-18T14:05:03.674Z,-6
2018-09-18T14:10:03.680Z,-6
2018-09-18T14:15:04.095Z,-6
2018-09-18T14:20:03.690Z,-6
2018-09-18T14:25:03.690Z,-6
2018-09-18T14:30:03.692Z,-6
2018-09-18T14:35:03.692Z,-6
2018-09-18T14:40:03.701Z,-6
2018-09-18T14:45:03.986Z,-6
2018-09-18T14:50:03.699Z,-6
2018-09-18T14:55:03.703Z,-6
2018-09-18T15:00:03.809Z,-6
2018-09-18T15:05:03.699Z,-6
2018-09-18T15:10:03.705Z,-6
2018-09-18T15:15:03.717Z,-6
2018-09-18T15:20:03.715Z,-6
2018-09-18T15:25:03.719Z,-6
2018-09-18T15:30:03.721Z,-6
2018-09-18T15:35:03.726Z,-6
2018-09-18T15:40:03.847Z,-6
2018-09-18T15:45:04.786Z,-6
2018-09-18T15:50:03.731Z,-6
2018-09-18T15:55:03.913Z,-6
2018-09-18T16:00:03.756Z,-6
2018-09-18T16:05:03.765Z,-6
2018-09-18T16:10:03.757Z,-6
2018-09-18T16:15:03.841Z,-6
2018-09-18T16:20:03.760Z,-6
2018-09-18T16:25:04.608Z,-6
2018-09-18T16:30:03.739Z,-6
2018-09-18T16:35:03.780Z,-6
2018-09-18T16:40:03.834Z,-6
2018-09-18T16:45:03.758Z,-6
2018-09-18T16:50:03.780Z,-6
2018-09-18T16:55:03.975Z,-6
2018-09-18T17:00:03.806Z,-6
2018-09-18T17:05:03.790Z,-6
2018-09-18T17:10:03.771Z,-6
2018-09-18T17:15:03.775Z,-6
2018-09-18T17:20:03.830Z,-6
2018-09-18T17:25:03.784Z,-6
2018-09-18T17:30:03.785Z,-6
2018-09-18T17:35:03.788Z,-6
2018-09-18T17:40:03.840Z,-6
2018-09-18T17:45:03.791Z,-6
2018-09-18T17:50:04.037Z,-6
2018-09-18T17:55:03.812Z,-6
2018-09-18T18:00:03.794Z,-6
2018-09-18T18:05:03.811Z,-6
2018-09-18T18:10:03.852Z,-6
2018-09-18T18:15:03.812Z,-6
2018-09-18T18:20:03.875Z,-6
2018-09-18T18:25:03.816Z,-6
2018-09-18T18:30:03.864Z,-6
2018-09-18T18:35:03.830Z,-6
2018-09-18T18:40:03.828Z,-6
2018-09-18T18:45:03.825Z,-6
2018-09-18T18:50:03.849Z,-6
2018-09-18T18:55:03.828Z,-6
2018-09-18T19:00:03.824Z,-6
2018-09-18T19:05:03.844Z,-6
2018-09-18T19:10:03.830Z,-6
2018-09-18T19:15:03.843Z,-6
2018-09-18T19:20:03.865Z,-6
2018-09-18T19:25:03.863Z,-6
2018-09-18T19:30:03.843Z,-6
2018-09-18T19:35:03.860Z,-6
2018-09-18T19:40:03.854Z,-6
2018-09-18T19:45:03.873Z,-6
2018-09-18T19:50:03.864Z,-6
2018-09-18T19:55:03.862Z,-6
2018-09-18T20:00:03.866Z,-6
2018-09-18T20:05:03.888Z,-6
2018-09-18T20:10:03.873Z,-6
2018-09-18T20:15:03.886Z,-6
2018-09-18T20:20:03.885Z,-6
2018-09-18T20:25:03.879Z,-6
2018-09-18T20:30:03.877Z,-6
2018-09-18T20:35:03.892Z,-6
2018-09-18T20:40:03.889Z,-6
2018-09-18T20:45:03.891Z,-6
2018-09-18T20:50:03.917Z,-6
2018-09-18T20:55:03.895Z,-6
2018-09-18T21:00:03.899Z,-6
2018-09-18T21:05:03.900Z,-6
2018-09-18T21:10:03.913Z,-6
2018-09-18T21:15:03.906Z,-6
2018-09-18T21:20:03.916Z,-6
2018-09-18T21:25:03.911Z,-6
2018-09-18T21:30:03.908Z,-6
2018-09-18T21:35:03.930Z,-6
2018-09-18T21:40:03.922Z,-6
2018-09-18T21:45:03.923Z,-6
2018-09-18T21:50:03.936Z,-6
2018-09-18T21:55:03.921Z,-6
2018-09-18T22:00:03.931Z,-6
2018-09-18T22:05:03.949Z,-6
2018-09-18T22:10:03.934Z,-6
2018-09-18T22:15:03.930Z,-6
2018-09-18T22:20:03.954Z,-6
2018-09-18T22:25:03.940Z,-6
2018-09-18T22:30:03.968Z,-6
2018-09-18T22:35:03.966Z,-6
2018-09-18T22:40:03.950Z,-6
2018-09-18T22:45:03.948Z,-6
2018-09-18T22:50:03.971Z,-6
2018-09-18T22:55:03.955Z,-6
2018-09-18T23:00:04.017Z,-6
2018-09-18T23:05:03.974Z,0.04
2018-09-18T23:10:03.992Z,7.14
2018-09-18T23:15:04.033Z,13.79
2018-09-18T23:20:03.988Z,22.79
2018-09-18T23:25:03.965Z,31.62
2018-09-18T23:30:03.972Z,42.58
2018-09-18T23:35:03.980Z,50.09
2018-09-18T23:40:03.974Z,58.98
2018-09-18T23:45:03.991Z,66.52
2018-09-18T23:50:04.004Z,79.68
2018-09-18T23:55:03.994Z,96.16
